sensor_id;sensor_type;location;lat;lon;timestamp;P1;durP1;ratioP1;P2;durP2;ratioP2
12072;SDS011;6098;49.004;8.372;2022-11-15T00:12:08;17.04;;;13.07;;
12072;SDS011;6098;49.004;8.372;2022-11-15T00:26:59;14.78;;;12.53;;
12072;SDS011;6098;49.004;8.372;2022-11-15T00:41:52;16.41;;;12.50;;
12072;SDS011;6098;49.004;8.372;2022-11-15T00:56:41;13.63;;;11.18;;
12072;SDS011;6098;49.004;8.372;2022-11-15T01:11:32;15.42;;;11.38;;
12072;SDS011;6098;49.004;8.372;2022-11-15T01:26:23;13.94;;;11.13;;
12072;SDS011;6098;49.004;8.372;2022-11-15T01:41:14;14.01;;;10.27;;
12072;SDS011;6098;49.004;8.372;2022-11-15T01:56:11;13.33;;;10.36;;
12072;SDS011;6098;49.004;8.372;2022-11-15T02:11:01;15.57;;;10.53;;
12072;SDS011;6098;49.004;8.372;2022-11-15T02:41:05;11.68;;;9.17;;
12072;SDS011;6098;49.004;8.372;2022-11-15T02:55:58;12.02;;;8.70;;
12072;SDS011;6098;49.004;8.372;2022-11-15T03:11:18;11.58;;;8.57;;
12072;SDS011;6098;49.004;8.372;2022-11-15T03:26:07;12.73;;;9.42;;
12072;SDS011;6098;49.004;8.372;2022-11-15T03:41:04;10.71;;;8.71;;
12072;SDS011;6098;49.004;8.372;2022-11-15T03:55:55;11.94;;;8.07;;
12072;SDS011;6098;49.004;8.372;2022-11-15T04:10:48;7.96;;;6.81;;
12072;SDS011;6098;49.004;8.372;2022-11-15T04:25:38;8.38;;;6.64;;
12072;SDS011;6098;49.004;8.372;2022-11-15T04:40:34;11.59;;;7.78;;
12072;SDS011;6098;49.004;8.372;2022-11-15T04:55:24;10.56;;;8.11;;
12072;SDS011;6098;49.004;8.372;2022-11-15T05:10:16;14.47;;;9.70;;
12072;SDS011;6098;49.004;8.372;2022-11-15T05:25:07;10.34;;;8.03;;
12072;SDS011;6098;49.004;8.372;2022-11-15T05:39:58;8.62;;;7.17;;
12072;SDS011;6098;49.004;8.372;2022-11-15T05:54:49;10.27;;;6.84;;
12072;SDS011;6098;49.004;8.372;2022-11-15T06:09:41;8.39;;;6.72;;
12072;SDS011;6098;49.004;8.372;2022-11-15T06:24:32;10.82;;;6.87;;
12072;SDS011;6098;49.004;8.372;2022-11-15T06:39:22;8.16;;;6.56;;
12072;SDS011;6098;49.004;8.372;2022-11-15T06:54:14;8.86;;;7.07;;
12072;SDS011;6098;49.004;8.372;2022-11-15T07:09:06;10.08;;;6.79;;
12072;SDS011;6098;49.004;8.372;2022-11-15T07:23:57;13.37;;;7.62;;
12072;SDS011;6098;49.004;8.372;2022-11-15T07:38:48;10.00;;;6.88;;
12072;SDS011;6098;49.004;8.372;2022-11-15T07:53:39;15.69;;;6.62;;
12072;SDS011;6098;49.004;8.372;2022-11-15T08:08:31;12.57;;;5.91;;
12072;SDS011;6098;49.004;8.372;2022-11-15T08:23:23;10.07;;;5.66;;
12072;SDS011;6098;49.004;8.372;2022-11-15T08:38:15;8.69;;;4.57;;
12072;SDS011;6098;49.004;8.372;2022-11-15T08:53:07;6.42;;;4.71;;
12072;SDS011;6098;49.004;8.372;2022-11-15T09:07:58;7.68;;;5.31;;
12072;SDS011;6098;49.004;8.372;2022-11-15T09:22:51;8.43;;;6.32;;
12072;SDS011;6098;49.004;8.372;2022-11-15T09:37:42;8.72;;;6.63;;
12072;SDS011;6098;49.004;8.372;2022-11-15T09:52:33;8.78;;;6.72;;
12072;SDS011;6098;49.004;8.372;2022-11-15T10:07:26;10.50;;;7.83;;
12072;SDS011;6098;49.004;8.372;2022-11-15T10:37:41;12.03;;;7.89;;
12072;SDS011;6098;49.004;8.372;2022-11-15T10:52:34;10.62;;;8.23;;
12072;SDS011;6098;49.004;8.372;2022-11-15T11:07:27;13.49;;;7.61;;
12072;SDS011;6098;49.004;8.372;2022-11-15T11:22:32;11.02;;;7.28;;
12072;SDS011;6098;49.004;8.372;2022-11-15T11:37:56;6.44;;;5.06;;
12072;SDS011;6098;49.004;8.372;2022-11-15T11:53:03;12.62;;;6.42;;
12072;SDS011;6098;49.004;8.372;2022-11-15T12:07:53;9.93;;;4.93;;
12072;SDS011;6098;49.004;8.372;2022-11-15T12:38:10;6.79;;;4.93;;
12072;SDS011;6098;49.004;8.372;2022-11-15T13:23:38;5.90;;;4.53;;
12072;SDS011;6098;49.004;8.372;2022-11-15T13:38:30;7.13;;;4.51;;
12072;SDS011;6098;49.004;8.372;2022-11-15T13:53:22;5.62;;;3.97;;
12072;SDS011;6098;49.004;8.372;2022-11-15T14:08:21;5.31;;;3.94;;
12072;SDS011;6098;49.004;8.372;2022-11-15T14:38:24;6.70;;;5.52;;
12072;SDS011;6098;49.004;8.372;2022-11-15T14:53:16;7.22;;;6.34;;
12072;SDS011;6098;49.004;8.372;2022-11-15T15:08:07;7.92;;;4.97;;
12072;SDS011;6098;49.004;8.372;2022-11-15T15:22:58;7.92;;;4.91;;
12072;SDS011;6098;49.004;8.372;2022-11-15T15:37:50;7.16;;;4.86;;
12072;SDS011;6098;49.004;8.372;2022-11-15T15:52:41;9.38;;;6.50;;
12072;SDS011;6098;49.004;8.372;2022-11-15T16:07:32;8.63;;;5.91;;
12072;SDS011;6098;49.004;8.372;2022-11-15T16:22:24;10.37;;;5.82;;
12072;SDS011;6098;49.004;8.372;2022-11-15T16:37:21;7.44;;;5.36;;
12072;SDS011;6098;49.004;8.372;2022-11-15T16:52:12;9.39;;;6.94;;
12072;SDS011;6098;49.004;8.372;2022-11-15T17:07:03;11.03;;;6.62;;
12072;SDS011;6098;49.004;8.372;2022-11-15T17:21:55;7.37;;;5.68;;
12072;SDS011;6098;49.004;8.372;2022-11-15T17:36:47;9.92;;;5.87;;
12072;SDS011;6098;49.004;8.372;2022-11-15T17:51:37;10.30;;;7.71;;
12072;SDS011;6098;49.004;8.372;2022-11-15T18:06:31;12.78;;;7.49;;
12072;SDS011;6098;49.004;8.372;2022-11-15T18:21:22;11.00;;;6.54;;
12072;SDS011;6098;49.004;8.372;2022-11-15T18:51:08;15.92;;;10.27;;
12072;SDS011;6098;49.004;8.372;2022-11-15T19:06:05;11.02;;;8.23;;
12072;SDS011;6098;49.004;8.372;2022-11-15T19:20:56;11.28;;;8.61;;
12072;SDS011;6098;49.004;8.372;2022-11-15T19:35:47;12.11;;;8.73;;
12072;SDS011;6098;49.004;8.372;2022-11-15T19:50:38;12.31;;;9.07;;
12072;SDS011;6098;49.004;8.372;2022-11-15T20:05:30;11.76;;;9.73;;
12072;SDS011;6098;49.004;8.372;2022-11-15T20:20:22;11.22;;;8.61;;
12072;SDS011;6098;49.004;8.372;2022-11-15T20:35:13;13.68;;;8.80;;
12072;SDS011;6098;49.004;8.372;2022-11-15T20:50:05;11.93;;;8.87;;
12072;SDS011;6098;49.004;8.372;2022-11-15T21:04:57;13.67;;;9.47;;
12072;SDS011;6098;49.004;8.372;2022-11-15T21:19:48;16.10;;;12.13;;
12072;SDS011;6098;49.004;8.372;2022-11-15T21:34:40;15.28;;;10.99;;
12072;SDS011;6098;49.004;8.372;2022-11-15T21:49:31;15.90;;;11.49;;
12072;SDS011;6098;49.004;8.372;2022-11-15T22:04:22;18.07;;;12.68;;
12072;SDS011;6098;49.004;8.372;2022-11-15T22:19:14;30.83;;;20.02;;
12072;SDS011;6098;49.004;8.372;2022-11-15T22:34:05;20.52;;;15.71;;
12072;SDS011;6098;49.004;8.372;2022-11-15T22:48:57;18.54;;;12.22;;
12072;SDS011;6098;49.004;8.372;2022-11-15T23:03:48;13.98;;;10.84;;
12072;SDS011;6098;49.004;8.372;2022-11-15T23:18:40;12.94;;;10.23;;
12072;SDS011;6098;49.004;8.372;2022-11-15T23:33:32;13.61;;;10.66;;
12072;SDS011;6098;49.004;8.372;2022-11-15T23:48:47;14.47;;;10.22;;
